Terminal Aerodrome Forecast
Issued by NWS Quad Cities IA IL

Home | Current Version | Previous Version | Text Only | Print | Product List | Glossary On
Versions: 1 2 3 4 5 6 7 8 9 10 11 12 13 14 15 16 17 18 19 20 21 22 23 24 25 26
000
FTUS43 KDVN 252342
TAFDBQ
TAF
KDBQ 252342Z 2600/2624 25012G19KT P6SM FEW060
     FM260200 28007KT P6SM SKC
     FM261000 36007KT P6SM BKN015
     FM261600 04013G19KT P6SM BKN025=

USA.gov is the U.S. government's official web portal to all federal, state and local government web resources and services.